Impacts METAR Board
IDs:

KPHX - Phoenix/Sky Harbor, AZ, US

Updated at: 2000 UTC 19 May 2019
Potential Impact None Slight Moderate High
Time 19/08Z 19/09Z 19/10Z 19/11Z 19/12Z 19/13Z 19/14Z 19/15Z 19/16Z 19/17Z 19/18Z 19/19Z 19/20Z
Temp76 75 72 71 69 68 69 71 74 76 78 79 79
Dewpt32 33 33 36 35 34 37 37 34 31 31 31 32
Altim29.77 29.76 29.76 29.77 29.77 29.78 29.78 29.79 29.80 29.78 29.78 29.77 29.76
VIS10 10 10 10 10 10 10 10 10 10 10 10 10
CIG230 230 230 230 190 190 190 190 190 190 140 210 190
CoverOVCOVCBKNOVCBKNBKNBKNBKNBKNBKNBKNBKNBKN
FltCatVFRVFRVFRVFRVFRVFRVFRVFRVFRVFRVFRVFRVFR
WX------------FUFU----------
WDir260270080120110801301700200280270
WSpd9 7 0 5 6 6 7 6 7 5 9 9 10
WGst-- -- -- -- -- -- -- -- -- -- -- -- --
Raw hourly METARs
KPHX 190751Z 26009KT 10SM BKN230 OVC270 24/00 A2977 RMK AO2 SLP063 T02440000
KPHX 190851Z 27007KT 10SM BKN230 OVC270 24/01 A2976 RMK AO2 SLP060 T02390006 58006
KPHX 190951Z 00000KT 10SM BKN230 BKN270 22/01 A2976 RMK AO2 SLP061 T02220006
KPHX 191051Z 08005KT 10SM BKN230 OVC270 22/02 A2977 RMK AO2 SLP066 T02170022
KPHX 191151Z 12006KT 10SM BKN190 BKN230 BKN250 21/02 A2977 RMK AO2 SLP065 T02060017 10250 20206 50003
KPHX 191251Z 11006KT 10SM BKN190 BKN230 BKN250 20/01 A2978 RMK AO2 SLP069 T02000011
KPHX 191351Z 08007KT 10SM FU FEW000 BKN190 BKN250 21/03 A2978 RMK AO2 SLP069 FU SE T02060028
KPHX 191451Z 13006KT 10SM FU FEW000 BKN190 BKN250 22/03 A2979 RMK AO2 SLP073 FU SE T02170028 53008
KPHX 191551Z 17007KT 10SM BKN190 BKN250 23/01 A2980 RMK AO2 SLP074 T02330011
KPHX 191651Z VRB05KT 10SM SCT150 SCT160 BKN190 24/M01 A2978 RMK AO2 SLP068 T02441006
KPHX 191751Z 20009KT 10SM BKN140 BKN190 26/M01 A2978 RMK AO2 SLP068 T02561006 10256 20200 58005
KPHX 191851Z 28009KT 10SM SCT140 BKN210 26/M01 A2977 RMK AO2 SLP064 T02611006
KPHX 191951Z 27010KT 10SM SCT150 BKN190 26/00 A2976 RMK AO2 SLP062 T02610000



Page loaded:  20:19 UTC  |   01:19 PM Pacific  |   02:19 PM Mountain  |   03:19 PM Central  |   04:19 PM Eastern

 

ADVISORIES

FORECASTS

FORECASTS

OBSERVATIONS

USER TOOLS

ABOUT US